Time;durP1;ratioP1;P1;durP2;ratioP2;P2;SDS_P1;SDS_P2;PMS_P1;PMS_P2;Temp;Humidity;BMP_temperature;BMP_pressure;BME280_temperature;BME280_humidity;BME280_pressure;Samples;Min_cycle;Max_cycle;Signal;HPM_P1;HPM_P2
2022/11/03 00:01:49;;;;;;;;;;;;;;;;;;4996341;28;19913;-79
2022/11/03 00:04:15;;;;;;;;;;;;;;;;;;5003028;28;20348;-79
2022/11/03 00:06:41;;;;;;;;;;;;;;;;;;4981256;28;19964;-79
2022/11/03 00:09:07;;;;;;;;;;;;;;;;;;4996256;28;19912;-79
2022/11/03 00:11:33;;;;;;;;;;;;;;;;;;4996419;28;19996;-79
2022/11/03 00:13:59;;;;;;;;;;;;;;;;;;4996284;28;20329;-79
2022/11/03 00:16:25;;;;;;;;;;;;;;;;;;4996222;28;19918;-79
2022/11/03 00:18:51;;;;;;;;;;;;;;;;;;4978514;28;19956;-79
2022/11/03 00:21:17;;;;;;;;;;;;;;;;;;4995784;28;19909;-79
2022/11/03 00:23:43;;;;;;;;;;;;;;;;;;4977515;28;20309;-80
2022/11/03 00:26:09;;;;;;;;;;;;;;;;;;4975766;28;19944;-77
2022/11/03 00:28:35;;;;;;;;;;;;;;;;;;4976041;28;19906;-79
2022/11/03 00:31:01;;;;;;;;;;;;;;;;;;4975353;28;19910;-79
2022/11/03 00:33:27;;;;;;;;;;;;;;;;;;4976189;28;19906;-80
2022/11/03 00:35:53;;;;;;;;;;;;;;;;;;4974933;28;20411;-79
2022/11/03 00:38:19;;;;;;;;;;;;;;;;;;4974896;28;19913;-79
2022/11/03 00:40:45;;;;;;;;;;;;;;;;;;4976227;28;19964;-78
2022/11/03 00:43:11;;;;;;;;;;;;;;;;;;4975095;28;19906;-79
2022/11/03 00:45:37;;;;;;;;;;;;;;;;;;4974811;28;20433;-79
2022/11/03 00:50:47;;;;;;;;;;;;;;;;;;4990356;28;19944;-79
2022/11/03 00:53:13;;;;;;;;;;;;;;;;;;4977177;28;19945;-79
2022/11/03 00:55:39;;;;;;;;;;;;;;;;;;4977351;28;19916;-79
2022/11/03 00:58:05;;;;;;;;;;;;;;;;;;4962083;28;19953;-79
2022/11/03 01:00:31;;;;;;;;;;;;;;;;;;4976060;28;19906;-79
2022/11/03 01:02:57;;;;;;;;;;;;;;;;;;4976005;28;20325;-79
2022/11/03 01:08:07;;;;;;;;;;;;;;;;;;4995340;28;20303;-79
2022/11/03 01:10:33;;;;;;;;;;;;;;;;;;4995009;28;19996;-79
2022/11/03 01:13:00;;;;;;;;;;;;;;;;;;4995348;28;20343;-79
2022/11/03 01:15:26;;;;;;;;;;;;;;;;;;4995286;28;19953;-79
2022/11/03 01:17:52;;;;;;;;;;;;;;;;;;4994928;28;19956;-79
2022/11/03 01:20:18;;;;;;;;;;;;;;;;;;4995067;28;19939;-79
2022/11/03 01:22:44;;;;;;;;;;;;;;;;;;4995041;28;19906;-79
2022/11/03 01:25:10;;;;;;;;;;;;;;;;;;4994976;28;19906;-79
2022/11/03 01:27:36;;;;;;;;;;;;;;;;;;4977602;28;20216;-79
2022/11/03 01:30:02;;;;;;;;;;;;;;;;;;4995020;28;19925;-79
2022/11/03 01:32:28;;;;;;;;;;;;;;;;;;4995200;28;20340;-79
2022/11/03 01:34:54;;;;;;;;;;;;;;;;;;4977226;28;19916;-79
2022/11/03 01:37:20;;;;;;;;;;;;;;;;;;4976592;28;19917;-79
2022/11/03 01:39:46;;;;;;;;;;;;;;;;;;4977212;28;20375;-79
2022/11/03 01:42:13;;;;;;;;;;;;;;;;;;4994791;28;19913;-79
2022/11/03 01:44:39;;;;;;;;;;;;;;;;;;5005198;28;20000;-79
2022/11/03 01:47:06;;;;;;;;;;;;;;;;;;5014176;28;20382;-79
2022/11/03 01:49:32;;;;;;;;;;;;;;;;;;5008282;28;19977;-79
2022/11/03 01:51:58;;;;;;;;;;;;;;;;;;4977162;28;19996;-79
2022/11/03 01:54:24;;;;;;;;;;;;;;;;;;4976665;28;19910;-79
2022/11/03 01:56:50;;;;;;;;;;;;;;;;;;4994329;28;19945;-79
2022/11/03 01:59:16;;;;;;;;;;;;;;;;;;4994393;28;19913;-79
2022/11/03 02:01:42;;;;;;;;;;;;;;;;;;4994412;28;20236;-79
2022/11/03 02:04:08;;;;;;;;;;;;;;;;;;5001956;28;20265;-79
2022/11/03 02:06:35;;;;;;;;;;;;;;;;;;4979935;28;20320;-79
2022/11/03 02:09:01;;;;;;;;;;;;;;;;;;4994134;28;19913;-79
2022/11/03 02:14:12;;;;;;;;;;;;;;;;;;4994167;28;19913;-79
2022/11/03 02:16:38;;;;;;;;;;;;;;;;;;4993909;28;20005;-79
2022/11/03 02:19:04;;;;;;;;;;;;;;;;;;4976519;28;19949;-79
2022/11/03 02:21:30;;;;;;;;;;;;;;;;;;4976295;28;19906;-79
2022/11/03 02:23:56;;;;;;;;;;;;;;;;;;4993940;28;19953;-79
2022/11/03 02:26:22;;;;;;;;;;;;;;;;;;4993637;28;19945;-79
2022/11/03 02:28:48;;;;;;;;;;;;;;;;;;4976406;28;19910;-79
2022/11/03 02:31:14;;;;;;;;;;;;;;;;;;4993881;28;19910;-79
2022/11/03 02:33:40;;;;;;;;;;;;;;;;;;4976209;28;19916;-79
2022/11/03 02:36:05;;;;;;;;;;;;;;;;;;4993657;28;19961;-79
2022/11/03 02:38:31;;;;;;;;;;;;;;;;;;4993247;28;19906;-79
2022/11/03 02:40:57;;;;;;;;;;;;;;;;;;4993779;28;19912;-79
2022/11/03 02:43:23;;;;;;;;;;;;;;;;;;4993955;28;19964;-79
2022/11/03 02:45:49;;;;;;;;;;;;;;;;;;5013443;28;20166;-79
2022/11/03 02:48:15;;;;;;;;;;;;;;;;;;5013317;28;20340;-79
2022/11/03 02:50:41;;;;;;;;;;;;;;;;;;4998929;28;19976;-79
2022/11/03 02:53:07;;;;;;;;;;;;;;;;;;4993582;28;20036;-79
2022/11/03 02:55:33;;;;;;;;;;;;;;;;;;4993177;28;19906;-79
2022/11/03 02:57:59;;;;;;;;;;;;;;;;;;4975882;28;19948;-79
2022/11/03 03:00:25;;;;;;;;;;;;;;;;;;4993433;28;19910;-79
2022/11/03 03:02:51;;;;;;;;;;;;;;;;;;4993385;28;19916;-79
2022/11/03 03:05:17;;;;;;;;;;;;;;;;;;4996205;28;20405;-79
2022/11/03 03:07:43;;;;;;;;;;;;;;;;;;5013382;28;19956;-79
2022/11/03 03:10:09;;;;;;;;;;;;;;;;;;5012913;28;19906;-79
2022/11/03 03:12:35;;;;;;;;;;;;;;;;;;5011556;28;20379;-79
2022/11/03 03:15:01;;;;;;;;;;;;;;;;;;4992130;28;19902;-79
2022/11/03 03:17:27;;;;;;;;;;;;;;;;;;4994928;28;19960;-79
2022/11/03 03:19:53;;;;;;;;;;;;;;;;;;4996547;28;20001;-79
2022/11/03 03:22:19;;;;;;;;;;;;;;;;;;5004755;28;20267;-79
2022/11/03 03:24:45;;;;;;;;;;;;;;;;;;5017024;28;19906;-79
2022/11/03 03:27:11;;;;;;;;;;;;;;;;;;4999054;28;20279;-79
2022/11/03 03:29:37;;;;;;;;;;;;;;;;;;4999129;28;19905;-79
2022/11/03 03:32:03;;;;;;;;;;;;;;;;;;5016380;28;20349;-79
2022/11/03 03:34:29;;;;;;;;;;;;;;;;;;5016697;28;19915;-79
2022/11/03 03:36:55;;;;;;;;;;;;;;;;;;5016483;28;19956;-79
2022/11/03 03:39:21;;;;;;;;;;;;;;;;;;5016475;28;20304;-79
2022/11/03 03:41:47;;;;;;;;;;;;;;;;;;4998930;28;19905;-79
2022/11/03 03:44:12;;;;;;;;;;;;;;;;;;4998862;28;19913;-79
2022/11/03 03:46:38;;;;;;;;;;;;;;;;;;5015160;28;19906;-79
2022/11/03 03:49:04;;;;;;;;;;;;;;;;;;5015029;28;19905;-79
2022/11/03 03:51:30;;;;;;;;;;;;;;;;;;4998809;28;20371;-79
2022/11/03 03:53:56;;;;;;;;;;;;;;;;;;4998710;28;20008;-78
2022/11/03 03:56:22;;;;;;;;;;;;;;;;;;5016394;28;19964;-79
2022/11/03 03:58:48;;;;;;;;;;;;;;;;;;4998660;28;19920;-79
2022/11/03 04:01:14;;;;;;;;;;;;;;;;;;4998310;28;19960;-78
2022/11/03 04:03:40;;;;;;;;;;;;;;;;;;4995343;28;19914;-79
2022/11/03 04:06:06;;;;;;;;;;;;;;;;;;4978814;28;19920;-79
2022/11/03 04:08:32;;;;;;;;;;;;;;;;;;4979246;28;19902;-78
2022/11/03 04:22:15;;;;;;;;;;;;;;;;;;5001039;28;19956;-79
2022/11/03 04:24:41;;;;;;;;;;;;;;;;;;5016086;28;19916;-79
2022/11/03 04:27:07;;;;;;;;;;;;;;;;;;5015745;28;19905;-79
2022/11/03 04:29:33;;;;;;;;;;;;;;;;;;4998011;28;19905;-79
2022/11/03 04:31:59;;;;;;;;;;;;;;;;;;4997880;28;19920;-79
2022/11/03 04:34:25;;;;;;;;;;;;;;;;;;4997945;28;19910;-79
2022/11/03 04:36:51;;;;;;;;;;;;;;;;;;4997276;28;19951;-79
2022/11/03 04:39:17;;;;;;;;;;;;;;;;;;4997627;28;19917;-79
2022/11/03 04:41:43;;;;;;;;;;;;;;;;;;5015117;28;19944;-78
2022/11/03 04:44:09;;;;;;;;;;;;;;;;;;4991241;28;20408;-79
2022/11/03 04:46:35;;;;;;;;;;;;;;;;;;4995982;28;19912;-78
2022/11/03 04:49:01;;;;;;;;;;;;;;;;;;4996885;28;19905;-79
2022/11/03 04:51:27;;;;;;;;;;;;;;;;;;5002019;28;19925;-79
2022/11/03 04:53:52;;;;;;;;;;;;;;;;;;5005254;28;19905;-79
2022/11/03 04:56:18;;;;;;;;;;;;;;;;;;4979148;28;19913;-79
2022/11/03 04:58:47;;;;;;;;;;;;;;;;;;4994044;28;19906;-79
2022/11/03 05:01:13;;;;;;;;;;;;;;;;;;4995313;28;19909;-79
2022/11/03 05:03:39;;;;;;;;;;;;;;;;;;4997733;28;19909;-76
2022/11/03 05:06:04;;;;;;;;;;;;;;;;;;4987982;28;19968;-79
2022/11/03 05:08:30;;;;;;;;;;;;;;;;;;5005679;28;19945;-79
2022/11/03 05:10:56;;;;;;;;;;;;;;;;;;5014582;28;19909;-79
2022/11/03 05:13:22;;;;;;;;;;;;;;;;;;4997173;28;20005;-79
2022/11/03 05:15:48;;;;;;;;;;;;;;;;;;4997285;28;19914;-79
2022/11/03 05:18:14;;;;;;;;;;;;;;;;;;5014628;28;19984;-79
2022/11/03 05:20:40;;;;;;;;;;;;;;;;;;5014777;28;19910;-79
2022/11/03 05:23:06;;;;;;;;;;;;;;;;;;5010866;28;19909;-79
2022/11/03 05:25:32;;;;;;;;;;;;;;;;;;4993608;28;19906;-79
2022/11/03 05:27:58;;;;;;;;;;;;;;;;;;4995023;28;19902;-79
2022/11/03 05:30:24;;;;;;;;;;;;;;;;;;5007855;28;19905;-79
2022/11/03 05:32:50;;;;;;;;;;;;;;;;;;4993282;28;19917;-79
2022/11/03 05:35:16;;;;;;;;;;;;;;;;;;5000077;28;19909;-79
2022/11/03 05:37:42;;;;;;;;;;;;;;;;;;5004575;28;20334;-79
2022/11/03 05:40:08;;;;;;;;;;;;;;;;;;4995959;28;19992;-79
2022/11/03 05:42:34;;;;;;;;;;;;;;;;;;5014267;28;20186;-79
2022/11/03 05:45:00;;;;;;;;;;;;;;;;;;5014025;28;19905;-79
2022/11/03 05:47:26;;;;;;;;;;;;;;;;;;4997369;28;19905;-76
2022/11/03 05:49:52;;;;;;;;;;;;;;;;;;5005762;28;20031;-77
2022/11/03 05:52:17;;;;;;;;;;;;;;;;;;5003672;28;19910;-77
2022/11/03 05:54:43;;;;;;;;;;;;;;;;;;5001953;28;19916;-77
2022/11/03 05:57:09;;;;;;;;;;;;;;;;;;4994333;28;19957;-77
2022/11/03 05:59:35;;;;;;;;;;;;;;;;;;4994213;28;19905;-77
2022/11/03 06:02:01;;;;;;;;;;;;;;;;;;5009512;28;19913;-77
2022/11/03 06:04:27;;;;;;;;;;;;;;;;;;5008398;28;19917;-77
2022/11/03 06:06:53;;;;;;;;;;;;;;;;;;5009062;28;19913;-77
2022/11/03 06:09:19;;;;;;;;;;;;;;;;;;4994290;28;19952;-77
2022/11/03 06:11:45;;;;;;;;;;;;;;;;;;5011628;28;19912;-77
2022/11/03 06:14:11;;;;;;;;;;;;;;;;;;5008455;28;20360;-77
2022/11/03 06:16:37;;;;;;;;;;;;;;;;;;5013055;28;19917;-77
2022/11/03 06:19:03;;;;;;;;;;;;;;;;;;4992643;28;19906;-77
2022/11/03 06:21:29;;;;;;;;;;;;;;;;;;4998964;28;19931;-77
2022/11/03 06:23:55;;;;;;;;;;;;;;;;;;4997851;28;19967;-77
2022/11/03 06:26:21;;;;;;;;;;;;;;;;;;4995014;28;19913;-77
2022/11/03 06:28:47;;;;;;;;;;;;;;;;;;4997517;28;19966;-78
2022/11/03 06:31:13;;;;;;;;;;;;;;;;;;5031852;28;19909;-75
2022/11/03 06:33:39;;;;;;;;;;;;;;;;;;5023480;28;19956;-75
2022/11/03 06:36:05;;;;;;;;;;;;;;;;;;5020846;28;19917;-75
2022/11/03 06:38:31;;;;;;;;;;;;;;;;;;5006792;28;20471;-76
2022/11/03 06:40:57;;;;;;;;;;;;;;;;;;5007726;28;20008;-75
2022/11/03 06:43:24;;;;;;;;;;;;;;;;;;4998044;28;19921;-75
2022/11/03 06:45:50;;;;;;;;;;;;;;;;;;5004270;28;20001;-76
2022/11/03 06:48:16;;;;;;;;;;;;;;;;;;5002082;28;20027;-75
2022/11/03 06:50:42;;;;;;;;;;;;;;;;;;4999004;28;20000;-75
2022/11/03 06:53:08;;;;;;;;;;;;;;;;;;4992313;28;19983;-75
2022/11/03 06:55:34;;;;;;;;;;;;;;;;;;4996291;28;19948;-75
2022/11/03 06:58:00;;;;;;;;;;;;;;;;;;5000801;28;19921;-76
2022/11/03 07:00:26;;;;;;;;;;;;;;;;;;4999184;28;19940;-75
2022/11/03 07:02:52;;;;;;;;;;;;;;;;;;5006639;28;19913;-75
2022/11/03 07:05:18;;;;;;;;;;;;;;;;;;4996371;28;19960;-76
2022/11/03 07:07:44;;;;;;;;;;;;;;;;;;4999609;28;19909;-76
2022/11/03 07:10:10;;;;;;;;;;;;;;;;;;5000337;28;19906;-75
2022/11/03 07:12:35;;;;;;;;;;;;;;;;;;5002875;28;19991;-75
2022/11/03 07:15:01;;;;;;;;;;;;;;;;;;5003566;28;19909;-76
2022/11/03 07:17:27;;;;;;;;;;;;;;;;;;5000883;28;19961;-76
2022/11/03 07:19:53;;;;;;;;;;;;;;;;;;5008538;28;19905;-76
2022/11/03 07:22:19;;;;;;;;;;;;;;;;;;5007869;28;19975;-75
2022/11/03 07:24:45;;;;;;;;;;;;;;;;;;4983421;28;19910;-75
2022/11/03 07:27:11;;;;;;;;;;;;;;;;;;5003598;28;19948;-76
2022/11/03 07:29:37;;;;;;;;;;;;;;;;;;4984544;28;20341;-76
2022/11/03 07:32:03;;;;;;;;;;;;;;;;;;4997395;28;20412;-75
2022/11/03 07:34:29;;;;;;;;;;;;;;;;;;5000304;28;20391;-76
2022/11/03 07:36:55;;;;;;;;;;;;;;;;;;4996118;28;19953;-75
2022/11/03 07:39:21;;;;;;;;;;;;;;;;;;5001795;28;19971;-76
2022/11/03 07:41:47;;;;;;;;;;;;;;;;;;4998185;28;19972;-75
2022/11/03 07:44:13;;;;;;;;;;;;;;;;;;5001696;28;19906;-76
2022/11/03 07:46:39;;;;;;;;;;;;;;;;;;5009384;28;19905;-75
2022/11/03 07:49:07;;;;;;;;;;;;;;;;;;5006736;28;19995;-75
2022/11/03 07:51:33;;;;;;;;;;;;;;;;;;5007739;28;20641;-76
2022/11/03 07:53:59;;;;;;;;;;;;;;;;;;5011985;28;19906;-75
2022/11/03 07:56:25;;;;;;;;;;;;;;;;;;4997067;28;19910;-75
2022/11/03 07:58:51;;;;;;;;;;;;;;;;;;4992436;28;19941;-75
2022/11/03 08:01:17;;;;;;;;;;;;;;;;;;5008439;28;19991;-76
2022/11/03 08:03:43;;;;;;;;;;;;;;;;;;5008376;28;19923;-76
2022/11/03 08:06:09;;;;;;;;;;;;;;;;;;5020596;28;20245;-76
2022/11/03 08:08:35;;;;;;;;;;;;;;;;;;5017422;28;19984;-75
2022/11/03 08:11:01;;;;;;;;;;;;;;;;;;4997758;28;20364;-76
2022/11/03 08:13:27;;;;;;;;;;;;;;;;;;4997821;28;20376;-75
2022/11/03 08:15:53;;;;;;;;;;;;;;;;;;4995725;28;19948;-76
2022/11/03 08:18:19;;;;;;;;;;;;;;;;;;4995474;28;19973;-76
2022/11/03 08:20:45;;;;;;;;;;;;;;;;;;4994594;28;20007;-75
2022/11/03 08:23:11;;;;;;;;;;;;;;;;;;5010270;28;19960;-75
2022/11/03 08:25:37;;;;;;;;;;;;;;;;;;5014826;28;19940;-75
2022/11/03 08:28:03;;;;;;;;;;;;;;;;;;5000847;28;20313;-76
2022/11/03 08:30:29;;;;;;;;;;;;;;;;;;4995417;28;19910;-74
2022/11/03 08:32:54;;;;;;;;;;;;;;;;;;4995240;28;20004;-75
2022/11/03 08:35:20;;;;;;;;;;;;;;;;;;4995305;28;19910;-75
2022/11/03 08:37:46;;;;;;;;;;;;;;;;;;4994934;28;19948;-75
2022/11/03 08:40:12;;;;;;;;;;;;;;;;;;4995107;28;19905;-75
2022/11/03 08:42:38;;;;;;;;;;;;;;;;;;4993709;28;20000;-75
2022/11/03 08:45:04;;;;;;;;;;;;;;;;;;4993810;28;19932;-76
2022/11/03 08:47:30;;;;;;;;;;;;;;;;;;4993709;28;20025;-74
2022/11/03 08:49:56;;;;;;;;;;;;;;;;;;4996697;28;19905;-75
2022/11/03 08:52:23;;;;;;;;;;;;;;;;;;5014594;28;20399;-75
2022/11/03 08:54:49;;;;;;;;;;;;;;;;;;5010910;28;20007;-74
2022/11/03 08:57:15;;;;;;;;;;;;;;;;;;5011703;28;20063;-74
2022/11/03 08:59:40;;;;;;;;;;;;;;;;;;5011724;28;19948;-74
2022/11/03 09:02:06;;;;;;;;;;;;;;;;;;5013818;28;19951;-74
2022/11/03 09:04:32;;;;;;;;;;;;;;;;;;4993892;28;20003;-75
2022/11/03 09:07:00;;;;;;;;;;;;;;;;;;5013556;28;19956;-74
2022/11/03 09:09:26;;;;;;;;;;;;;;;;;;5014376;28;20276;-74
2022/11/03 09:11:52;;;;;;;;;;;;;;;;;;5013549;28;20000;-75
2022/11/03 09:14:18;;;;;;;;;;;;;;;;;;4996313;28;19906;-74
2022/11/03 09:16:44;;;;;;;;;;;;;;;;;;4976397;28;19920;-74
2022/11/03 09:19:10;;;;;;;;;;;;;;;;;;5005891;28;19914;-74
2022/11/03 09:21:36;;;;;;;;;;;;;;;;;;4991857;28;19991;-74
2022/11/03 09:24:02;;;;;;;;;;;;;;;;;;5027711;28;20351;-74
2022/11/03 09:26:28;;;;;;;;;;;;;;;;;;5033068;28;20639;-74
2022/11/03 09:28:54;;;;;;;;;;;;;;;;;;5015653;28;19953;-77
2022/11/03 09:31:19;;;;;;;;;;;;;;;;;;4994994;28;19964;-78
2022/11/03 09:33:45;;;;;;;;;;;;;;;;;;4995072;28;19910;-79
2022/11/03 09:36:11;;;;;;;;;;;;;;;;;;4994855;28;19905;-78
2022/11/03 09:38:37;;;;;;;;;;;;;;;;;;4993964;28;19976;-78
2022/11/03 09:41:03;;;;;;;;;;;;;;;;;;5014355;28;19935;-78
2022/11/03 09:43:29;;;;;;;;;;;;;;;;;;4995611;28;19956;-78
2022/11/03 09:45:55;;;;;;;;;;;;;;;;;;4999649;28;19909;-79
2022/11/03 09:48:21;;;;;;;;;;;;;;;;;;4992853;28;19906;-78
2022/11/03 09:50:47;;;;;;;;;;;;;;;;;;4999613;28;19906;-78
2022/11/03 09:53:13;;;;;;;;;;;;;;;;;;4997060;28;20335;-78
2022/11/03 09:55:39;;;;;;;;;;;;;;;;;;4996071;28;19999;-78
2022/11/03 09:58:05;;;;;;;;;;;;;;;;;;5014077;28;19992;-79
2022/11/03 10:00:31;;;;;;;;;;;;;;;;;;4996629;28;19905;-77
2022/11/03 10:02:57;;;;;;;;;;;;;;;;;;5003454;28;19914;-76
2022/11/03 10:05:23;;;;;;;;;;;;;;;;;;5005107;28;19940;-75
2022/11/03 10:07:49;;;;;;;;;;;;;;;;;;5033510;28;19948;-76
2022/11/03 10:13:43;;;;;;;15.32;2.78;;;;;;;;;;5110508;27;20101;-80
2022/11/03 10:16:10;;;;;;;9.23;2.75;;;;;;;;;;5113805;28;20094;-80
2022/11/03 10:18:36;;;;;;;11.40;2.78;;;;;;;;;;5112606;28;20398;-79
2022/11/03 10:21:14;;;;;;;13.23;2.78;;;;;;;;;;5121903;28;20499;-80
2022/11/03 10:23:40;;;;;;;15.25;3.35;;;;;;;;;;5117582;28;20144;-79
2022/11/03 10:26:11;;;;;;;11.80;2.40;;;;;;;;;;5113954;28;20095;-79
2022/11/03 10:28:37;;;;;;;6.93;2.00;;;;;;;;;;5130507;28;20027;-79
2022/11/03 10:31:17;;;;;;;14.52;2.65;;;;;;;;;;5121372;27;20039;-79
2022/11/03 10:33:53;;;;;;;13.75;2.65;;;;;;;;;;5110765;28;20024;-79
2022/11/03 10:36:19;;;;;;;15.18;2.28;;;;;;;;;;5120823;28;20099;-79
2022/11/03 10:38:46;;;;;;;11.25;2.15;;;;;;;;;;5130072;27;20096;-80
2022/11/03 10:41:14;;;;;;;8.65;1.88;;;;;;;;;;5122265;27;20095;-80
2022/11/03 10:43:40;;;;;;;14.13;2.45;;;;;;;;;;5120645;28;20035;-79
2022/11/03 10:46:15;;;;;;;12.63;2.30;;;;;;;;;;5129899;27;20024;-79
2022/11/03 10:48:41;;;;;;;9.75;2.58;;;;;;;;;;5130068;28;20358;-80
2022/11/03 10:51:10;;;;;;;11.80;2.50;;;;;;;;;;5129874;27;20077;-78
2022/11/03 10:53:36;;;;;;;12.82;2.22;;;;;;;;;;5118195;28;20095;-79
2022/11/03 10:56:02;;;;;;;12.23;2.10;;;;;;;;;;5112946;28;20512;-78
2022/11/03 10:58:29;;;;;;;14.05;2.63;;;;;;;;;;5129569;27;20473;-78
2022/11/03 11:00:55;;;;;;;11.13;2.78;;;;;;;;;;5116160;28;20028;-78
2022/11/03 11:03:21;;;;;;;14.00;2.42;;;;;;;;;;5103927;28;20043;-78
2022/11/03 11:05:48;;;;;;;16.38;2.90;;;;;;;;;;5107131;28;20039;-79
2022/11/03 11:08:18;;;;;;;6.72;2.00;;;;;;;;;;5106102;28;20028;-78
2022/11/03 11:10:44;;;;;;;9.98;2.13;;;;;;;;;;5107606;28;20027;-80
2022/11/03 11:13:17;;;;;;;11.65;2.53;;;;;;;;;;5108701;28;20050;-80
2022/11/03 11:15:50;;;;;;;11.00;2.28;;;;;;;;;;5108158;28;20377;-80
2022/11/03 11:18:28;;;;;;;7.75;2.42;;;;;;;;;;5125130;28;20012;-80
2022/11/03 11:20:55;;;;;;;9.77;2.72;;;;;;;;;;5114776;28;20150;-80
2022/11/03 11:23:27;;;;;;;11.45;2.58;;;;;;;;;;5112224;28;20075;-80
2022/11/03 11:25:53;;;;;;;;;;;;;;;;;;5116067;28;20028;-80
2022/11/03 11:28:19;;;;;;;12.60;2.60;;;;;;;;;;5115313;28;19911;-80
2022/11/03 11:30:58;;;;;;;8.32;2.65;;;;;;;;;;5114624;28;20028;-80
2022/11/03 11:33:25;;;;;;;12.30;2.55;;;;;;;;;;5095043;28;20036;-80
2022/11/03 11:35:52;;;;;;;9.77;2.28;;;;;;;;;;5093637;28;20393;-81
2022/11/03 11:38:36;;;;;;;12.18;3.05;;;;;;;;;;5093955;28;20035;-80
2022/11/03 11:41:03;;;;;;;8.13;2.10;;;;;;;;;;5115270;28;20030;-81
2022/11/03 11:43:29;;;;;;;10.68;1.95;;;;;;;;;;5114218;28;20024;-81
2022/11/03 11:46:13;;;;;;;12.98;1.92;;;;;;;;;;5094362;28;20373;-80
2022/11/03 11:48:39;;;;;;;9.65;2.22;;;;;;;;;;5094884;28;20016;-80
2022/11/03 11:51:10;;;;;;;7.15;1.80;;;;;;;;;;5074357;28;20146;-81
2022/11/03 11:53:44;;;;;;;9.70;1.98;;;;;;;;;;5090442;28;20115;-81
2022/11/03 11:56:11;;;;;;;9.02;2.00;;;;;;;;;;5093346;28;20095;-81
2022/11/03 11:58:41;;;;;;;11.23;2.20;;;;;;;;;;5093925;28;20031;-80
2022/11/03 12:01:28;;;;;;;6.53;1.63;;;;;;;;;;5094770;28;20477;-80
2022/11/03 12:03:58;;;;;;;10.10;1.73;;;;;;;;;;5085818;28;20029;-80
2022/11/03 12:06:34;;;;;;;14.30;2.53;;;;;;;;;;5086790;28;20123;-80
2022/11/03 12:09:07;;;;;;;12.93;2.65;;;;;;;;;;5094947;28;20017;-80
2022/11/03 12:11:46;;;;;;;7.40;1.88;;;;;;;;;;5093905;28;20036;-80
2022/11/03 12:14:24;;;;;;;8.65;1.92;;;;;;;;;;5076751;28;20039;-80
2022/11/03 12:16:51;;;;;;;8.88;1.77;;;;;;;;;;5074583;28;20099;-80
2022/11/03 12:19:35;;;;;;;14.52;2.47;;;;;;;;;;5073937;28;20036;-80
2022/11/03 12:22:12;;;;;;;11.98;2.40;;;;;;;;;;5074010;28;20024;-80
2022/11/03 12:24:46;;;;;;;12.70;2.10;;;;;;;;;;5070988;28;20844;-80
2022/11/03 12:27:24;;;;;;;9.15;1.83;;;;;;;;;;5071155;28;20032;-80
2022/11/03 12:29:51;;;;;;;9.18;2.08;;;;;;;;;;5073565;28;20009;-80
2022/11/03 12:32:17;;;;;;;11.95;2.13;;;;;;;;;;5073578;28;20020;-80
2022/11/03 12:34:43;;;;;;;12.77;2.08;;;;;;;;;;5072891;28;20031;-80
2022/11/03 12:37:09;;;;;;;7.18;2.40;;;;;;;;;;5073340;28;20017;-81
2022/11/03 12:39:35;;;;;;;11.75;1.70;;;;;;;;;;5073618;28;20043;-80
2022/11/03 12:42:01;;;;;;;8.82;2.30;;;;;;;;;;5073379;28;20035;-80
2022/11/03 12:44:27;;;;;;;11.65;1.75;;;;;;;;;;5082712;28;20024;-80
2022/11/03 12:46:53;;;;;;;7.60;1.70;;;;;;;;;;5093799;28;20051;-81
2022/11/03 12:49:19;;;;;;;13.00;1.80;;;;;;;;;;5092753;28;20497;-81
2022/11/03 12:51:45;;;;;;;9.68;1.95;;;;;;;;;;5091979;28;20093;-78
2022/11/03 12:54:11;;;;;;;6.80;1.77;;;;;;;;;;5094124;28;20021;-79
2022/11/03 12:56:38;;;;;;;6.93;1.80;;;;;;;;;;5072934;28;20351;-79
2022/11/03 12:59:04;;;;;;;10.70;1.85;;;;;;;;;;5076961;28;20024;-80
2022/11/03 13:01:30;;;;;;;8.20;1.63;;;;;;;;;;5092554;28;20024;-80
2022/11/03 13:03:56;;;;;;;8.23;1.70;;;;;;;;;;5097745;28;20027;-80
2022/11/03 13:06:22;;;;;;;6.32;1.77;;;;;;;;;;5095039;28;20058;-80
2022/11/03 13:08:49;;;;;;;7.18;1.60;;;;;;;;;;5096806;28;20028;-80
2022/11/03 13:13:59;;;;;;;4.57;1.40;;;;;;;;;;5096772;28;20089;-81
2022/11/03 13:16:25;;;;;;;7.47;1.70;;;;;;;;;;5093008;28;20108;-81
2022/11/03 13:18:51;;;;;;;8.50;1.95;;;;;;;;;;5091743;28;20097;-81
2022/11/03 13:21:18;;;;;;;7.38;1.70;;;;;;;;;;5092762;28;20077;-80
2022/11/03 13:23:45;;;;;;;6.35;1.40;;;;;;;;;;5077386;28;20162;-81
2022/11/03 13:26:11;;;;;;;9.48;2.22;;;;;;;;;;5101496;28;20020;-81
2022/11/03 13:28:37;;;;;;;8.38;1.67;;;;;;;;;;5071559;28;20020;-81
2022/11/03 13:31:03;;;;;;;7.35;1.67;;;;;;;;;;5073645;28;20025;-81
2022/11/03 13:33:29;;;;;;;6.30;1.90;;;;;;;;;;5092987;28;20059;-81
2022/11/03 13:35:55;;;;;;;11.93;2.03;;;;;;;;;;5091895;28;20026;-81
2022/11/03 13:38:21;;;;;;;5.05;1.70;;;;;;;;;;5092578;28;20090;-80
2022/11/03 13:40:47;;;;;;;7.18;1.95;;;;;;;;;;5092832;28;20442;-80
2022/11/03 13:43:13;;;;;;;5.45;1.80;;;;;;;;;;5093321;28;20338;-80
2022/11/03 13:45:39;;;;;;;9.40;1.63;;;;;;;;;;5072225;28;20090;-80
2022/11/03 13:48:05;;;;;;;8.27;1.60;;;;;;;;;;5070990;28;20394;-80
2022/11/03 13:50:31;;;;;;;7.45;1.95;;;;;;;;;;5088492;28;20520;-80
2022/11/03 13:52:57;;;;;;;4.90;1.80;;;;;;;;;;5092309;28;20039;-80
2022/11/03 13:55:23;;;;;;;7.32;2.47;;;;;;;;;;5079027;28;20033;-80
2022/11/03 13:57:49;;;;;;;10.55;1.67;;;;;;;;;;5071018;28;20032;-81
2022/11/03 14:00:15;;;;;;;10.10;1.95;;;;;;;;;;5072117;28;20029;-80
2022/11/03 14:02:42;;;;;;;6.32;1.80;;;;;;;;;;5071040;28;20028;-79
2022/11/03 14:05:09;;;;;;;9.15;1.58;;;;;;;;;;5072241;28;20069;-79
2022/11/03 14:07:35;;;;;;;7.82;1.67;;;;;;;;;;5072524;28;20029;-81
2022/11/03 14:10:01;;;;;;;6.38;2.00;;;;;;;;;;5072121;28;20052;-81
2022/11/03 14:12:30;;;;;;;6.00;1.60;;;;;;;;;;5071862;28;20057;-80
2022/11/03 14:15:00;;;;;;;5.65;1.70;;;;;;;;;;5072239;28;20024;-81
2022/11/03 14:17:26;;;;;;;9.02;1.80;;;;;;;;;;5072058;28;20023;-80
2022/11/03 14:19:52;;;;;;;5.97;1.88;;;;;;;;;;5072378;28;20023;-81
2022/11/03 14:22:22;;;;;;;5.85;1.80;;;;;;;;;;5072097;28;20020;-81
2022/11/03 14:24:48;;;;;;;7.05;2.08;;;;;;;;;;5072392;28;20412;-81
2022/11/03 14:27:15;;;;;;;8.60;2.10;;;;;;;;;;5072189;28;20040;-79
2022/11/03 14:29:42;;;;;;;11.38;1.83;;;;;;;;;;5073574;28;20028;-81
2022/11/03 14:32:08;;;;;;;11.93;1.75;;;;;;;;;;5092012;28;20028;-81
2022/11/03 14:34:34;;;;;;;6.00;1.80;;;;;;;;;;5090610;28;20041;-81
2022/11/03 14:37:01;;;;;;;8.50;1.80;;;;;;;;;;5093898;28;20108;-80
2022/11/03 14:39:27;;;;;;;9.32;1.40;;;;;;;;;;5104255;28;20019;-80
2022/11/03 14:42:02;;;;;;;10.75;2.15;;;;;;;;;;5090789;28;20035;-81
2022/11/03 14:44:29;;;;;;;5.05;1.70;;;;;;;;;;5079696;28;21737;-81
2022/11/03 14:46:55;;;;;;;8.70;1.83;;;;;;;;;;5091966;28;20020;-81
2022/11/03 14:49:21;;;;;;;7.40;1.70;;;;;;;;;;5100244;28;20040;-81
2022/11/03 14:51:47;;;;;;;6.10;1.77;;;;;;;;;;5091910;28;20137;-81
2022/11/03 14:54:13;;;;;;;5.93;1.90;;;;;;;;;;5093145;28;20038;-81
2022/11/03 14:56:39;;;;;;;6.85;1.60;;;;;;;;;;5080669;28;20025;-81
2022/11/03 14:59:05;;;;;;;9.80;1.67;;;;;;;;;;5072203;28;20426;-81
2022/11/03 15:01:32;;;;;;;7.53;1.55;;;;;;;;;;5092633;28;20028;-80
2022/11/03 15:03:58;;;;;;;4.45;1.60;;;;;;;;;;5091731;28;20024;-81
2022/11/03 15:06:24;;;;;;;7.80;1.92;;;;;;;;;;5098695;28;20028;-81
2022/11/03 15:08:50;;;;;;;8.23;1.70;;;;;;;;;;5095154;28;20024;-81
2022/11/03 15:11:16;;;;;;;5.53;1.48;;;;;;;;;;5099025;28;20106;-81
2022/11/03 15:13:42;;;;;;;14.75;2.00;;;;;;;;;;5099040;28;20028;-81
2022/11/03 15:16:08;;;;;;;8.32;1.70;;;;;;;;;;5102030;28;20032;-80
2022/11/03 15:18:34;;;;;;;6.93;1.70;;;;;;;;;;5099334;28;20024;-81
2022/11/03 15:21:00;;;;;;;6.55;1.80;;;;;;;;;;5099585;28;20036;-81
2022/11/03 15:23:27;;;;;;;6.47;1.92;;;;;;;;;;5073839;28;20031;-81
2022/11/03 15:25:53;;;;;;;4.82;1.35;;;;;;;;;;5072524;28;20107;-80
2022/11/03 15:28:20;;;;;;;6.43;1.48;;;;;;;;;;5090521;28;20036;-80
2022/11/03 15:30:47;;;;;;;6.57;1.65;;;;;;;;;;5094617;28;20081;-79
2022/11/03 15:33:13;;;;;;;8.27;2.33;;;;;;;;;;5094580;28;20052;-80
2022/11/03 15:35:39;;;;;;;6.15;2.03;;;;;;;;;;5095591;28;20032;-80
2022/11/03 15:38:05;;;;;;;10.43;2.00;;;;;;;;;;5095332;28;20370;-80
2022/11/03 15:40:31;;;;;;;7.30;2.05;;;;;;;;;;5094485;28;20035;-81
2022/11/03 15:42:57;;;;;;;6.43;1.75;;;;;;;;;;5093953;28;20715;-81
2022/11/03 15:45:24;;;;;;;7.40;1.65;;;;;;;;;;5094016;28;20476;-81
2022/11/03 15:47:50;;;;;;;4.82;1.83;;;;;;;;;;5095718;28;20103;-81
2022/11/03 15:50:16;;;;;;;8.40;2.22;;;;;;;;;;5088768;28;20135;-80
2022/11/03 15:52:42;;;;;;;6.78;1.80;;;;;;;;;;5115463;28;20055;-81
2022/11/03 15:55:09;;;;;;;7.82;2.38;;;;;;;;;;5094789;28;20754;-81
2022/11/03 15:57:35;;;;;;;14.38;4.57;;;;;;;;;;5095096;28;20028;-80
2022/11/03 16:00:02;;;;;;;10.50;3.35;;;;;;;;;;5094789;28;20032;-81
2022/11/03 16:02:28;;;;;;;24.38;12.27;;;;;;;;;;5093335;28;20071;-80
2022/11/03 16:04:55;;;;;;;50.42;25.63;;;;;;;;;;5077094;28;20387;-81
2022/11/03 16:07:21;;;;;;;29.23;13.43;;;;;;;;;;5104147;28;20020;-81
2022/11/03 16:09:47;;;;;;;17.80;9.00;;;;;;;;;;5112779;28;20076;-80
2022/11/03 16:12:13;;;;;;;23.38;11.10;;;;;;;;;;5111752;28;20043;-79
2022/11/03 16:14:39;;;;;;;12.13;5.25;;;;;;;;;;5093211;28;20103;-80
2022/11/03 16:17:05;;;;;;;8.30;2.78;;;;;;;;;;5093904;28;20081;-80